Auckland International Airport
NZAA : now visible

Airfield :











YOU CAN JOIN US ON...

 
LOGIN :

Register | Disclaimer

   EN    FR    IT 

 









Legend :    VFR   Marginal VFR   IFR   Intensive IFR   Very Intensive IFR
Visi :
Ceiling :
>= 8 km
>= 3000ft
5 to 8 km
1000 to 3000 ft
1500m to 5 km
500 to 1000 ft
800 to 1500m
200 to 500 ft
< 800m
< 200 ft
Symbols :   Thunderstorms  Fog  Heavy snow  Heavy precipitations  Wind > 20 kt






- Airport Elevation : 23 ft
- IATA code : AKL


NZAA - Auckland International

CURRENT METAR :
  • 270230Z AUTO 21005KT 170V240 9999 NCD 25/18 Q1014 NOSIG

EXPIRED METARs :
  • 270200Z AUTO 22005KT 9999 BKN070/// 24/17 Q1015 NOSIG
  • 270130Z AUTO 23007KT 9999 -SHRA FEW046/// SCT060/// BKN070/// 24/18 Q1015 NOSIG
  • 270100Z AUTO 23008KT 9999 VCSH BKN060/// 24/18 Q1015 NOSIG
  • 270030Z AUTO 21007KT 9999 BKN050/// 24/18 Q1015 NOSIG
  • 270000Z AUTO 23007KT 210V270 9999 FEW030/// BKN055/// 24/18 Q1015 NOSIG
  • 262330Z AUTO 20004KT 110V300 9999 FEW038/// BKN045/// 24/18 Q1016 NOSIG

TAF TAF NZAA
Valid from the 27 at 00:00 until the 28 at 00:00 UTC


262322Z 2700/2800 22010KT 9999 -SHRA SCT030
FM271000 16005KT 9999 SCT015 BKN025
FM272300 23010KT 9999 BKN025



MET'MAP, your aeronautical weather chart ! - Copyright ORBIFLY December 2007 - Disclaimer

ORBIFLY MET'MAP TEAM :

Programming & Development : Alexandra Zaïnal
Concept & original design : Baudouin d'Aumeries
Assistance for programming : Marc-Olivier Méhu
Technical & hardware support : Manuel Goepfert

Contact : metmap@orbifly.com




SOURCES & CREDITS :

   NOAA       Earth
Advisory